sensor_id;sensor_type;location;lat;lon;timestamp;pressure;altitude;pressure_sealevel;temperature;humidity
47883;BME280;37739;50.350;7.578;2024-02-16T00:01:06;99392.25;;;11.75;92.96
47883;BME280;37739;50.350;7.578;2024-02-16T00:03:34;99388.91;;;11.78;92.57
47883;BME280;37739;50.350;7.578;2024-02-16T00:06:00;99394.03;;;11.78;92.25
47883;BME280;37739;50.350;7.578;2024-02-16T00:08:25;99391.50;;;11.79;92.27
47883;BME280;37739;50.350;7.578;2024-02-16T00:10:53;99383.81;;;11.81;91.94
47883;BME280;37739;50.350;7.578;2024-02-16T00:13:18;99387.31;;;11.83;91.96
47883;BME280;37739;50.350;7.578;2024-02-16T00:15:46;99389.91;;;11.85;92.18
47883;BME280;37739;50.350;7.578;2024-02-16T00:18:11;99390.78;;;11.85;91.81
47883;BME280;37739;50.350;7.578;2024-02-16T00:20:38;99390.00;;;11.88;91.36
47883;BME280;37739;50.350;7.578;2024-02-16T00:23:05;99384.91;;;11.89;91.26
47883;BME280;37739;50.350;7.578;2024-02-16T00:25:31;99388.41;;;11.91;91.08
47883;BME280;37739;50.350;7.578;2024-02-16T00:27:57;99386.75;;;11.95;90.72
47883;BME280;37739;50.350;7.578;2024-02-16T00:30:22;99389.38;;;11.96;90.26
47883;BME280;37739;50.350;7.578;2024-02-16T00:32:48;99382.56;;;11.98;90.56
47883;BME280;37739;50.350;7.578;2024-02-16T00:35:16;99390.28;;;11.98;89.59
47883;BME280;37739;50.350;7.578;2024-02-16T00:37:43;99389.50;;;12.01;89.60
47883;BME280;37739;50.350;7.578;2024-02-16T00:40:09;99395.53;;;12.02;89.87
47883;BME280;37739;50.350;7.578;2024-02-16T00:42:34;99390.41;;;12.03;89.45
47883;BME280;37739;50.350;7.578;2024-02-16T00:45:00;99388.72;;;12.04;89.37
47883;BME280;37739;50.350;7.578;2024-02-16T00:47:31;99392.16;;;12.04;89.42
47883;BME280;37739;50.350;7.578;2024-02-16T00:49:59;99389.63;;;12.06;89.34
47883;BME280;37739;50.350;7.578;2024-02-16T00:52:24;99393.94;;;12.07;89.58
47883;BME280;37739;50.350;7.578;2024-02-16T00:54:52;99393.03;;;12.06;89.02
47883;BME280;37739;50.350;7.578;2024-02-16T00:57:20;99384.50;;;12.07;89.02
47883;BME280;37739;50.350;7.578;2024-02-16T00:59:45;99382.81;;;12.08;88.84
47883;BME280;37739;50.350;7.578;2024-02-16T01:02:10;99387.94;;;12.08;88.22
47883;BME280;37739;50.350;7.578;2024-02-16T01:04:38;99389.72;;;12.10;88.92
47883;BME280;37739;50.350;7.578;2024-02-16T01:07:07;99387.13;;;12.10;88.60
47883;BME280;37739;50.350;7.578;2024-02-16T01:09:35;99388.91;;;12.11;88.45
47883;BME280;37739;50.350;7.578;2024-02-16T01:12:05;99391.38;;;12.08;88.43
47883;BME280;37739;50.350;7.578;2024-02-16T01:14:31;99392.22;;;12.07;88.92
47883;BME280;37739;50.350;7.578;2024-02-16T01:16:58;99398.19;;;12.06;88.71
47883;BME280;37739;50.350;7.578;2024-02-16T01:19:26;99392.22;;;12.07;88.96
47883;BME280;37739;50.350;7.578;2024-02-16T01:21:51;99390.47;;;12.06;89.07
47883;BME280;37739;50.350;7.578;2024-02-16T01:24:19;99387.88;;;12.05;89.18
47883;BME280;37739;50.350;7.578;2024-02-16T01:26:46;99390.47;;;12.06;89.52
47883;BME280;37739;50.350;7.578;2024-02-16T01:29:13;99389.66;;;12.07;89.17
47883;BME280;37739;50.350;7.578;2024-02-16T01:31:39;99392.22;;;12.07;89.15
47883;BME280;37739;50.350;7.578;2024-02-16T01:34:04;99389.63;;;12.06;89.21
47883;BME280;37739;50.350;7.578;2024-02-16T01:36:29;99389.63;;;12.06;89.62
47883;BME280;37739;50.350;7.578;2024-02-16T01:38:54;99394.75;;;12.06;89.99
47883;BME280;37739;50.350;7.578;2024-02-16T01:41:20;99397.38;;;12.07;90.77
47883;BME280;37739;50.350;7.578;2024-02-16T01:43:47;99392.19;;;12.06;91.88
47883;BME280;37739;50.350;7.578;2024-02-16T01:46:15;99387.84;;;12.03;92.77
47883;BME280;37739;50.350;7.578;2024-02-16T01:48:43;99390.28;;;11.98;93.78
47883;BME280;37739;50.350;7.578;2024-02-16T01:51:08;99393.63;;;11.94;94.36
47883;BME280;37739;50.350;7.578;2024-02-16T01:53:35;99388.41;;;11.91;94.50
47883;BME280;37739;50.350;7.578;2024-02-16T01:56:02;99392.56;;;11.88;94.84
47883;BME280;37739;50.350;7.578;2024-02-16T01:58:29;99393.34;;;11.85;94.97
47883;BME280;37739;50.350;7.578;2024-02-16T02:00:55;99397.63;;;11.85;94.99
47883;BME280;37739;50.350;7.578;2024-02-16T02:03:22;99397.63;;;11.85;95.65
47883;BME280;37739;50.350;7.578;2024-02-16T02:05:52;99409.56;;;11.83;96.59
47883;BME280;37739;50.350;7.578;2024-02-16T02:08:21;99398.38;;;11.81;97.34
47883;BME280;37739;50.350;7.578;2024-02-16T02:10:46;99404.38;;;11.81;98.34
47883;BME280;37739;50.350;7.578;2024-02-16T02:13:12;99406.09;;;11.81;98.44
47883;BME280;37739;50.350;7.578;2024-02-16T02:15:40;99398.34;;;11.79;99.36
47883;BME280;37739;50.350;7.578;2024-02-16T02:18:07;99400.06;;;11.78;99.56
47883;BME280;37739;50.350;7.578;2024-02-16T02:20:35;99394.03;;;11.78;99.99
47883;BME280;37739;50.350;7.578;2024-02-16T02:23:03;99395.66;;;11.74;100.00
47883;BME280;37739;50.350;7.578;2024-02-16T02:25:31;99395.50;;;11.68;100.00
47883;BME280;37739;50.350;7.578;2024-02-16T02:27:56;99385.13;;;11.65;100.00
47883;BME280;37739;50.350;7.578;2024-02-16T02:30:24;99395.31;;;11.61;100.00
47883;BME280;37739;50.350;7.578;2024-02-16T02:32:52;99393.44;;;11.55;100.00
47883;BME280;37739;50.350;7.578;2024-02-16T02:35:18;99385.59;;;11.50;100.00
47883;BME280;37739;50.350;7.578;2024-02-16T02:37:43;99383.78;;;11.46;100.00
47883;BME280;37739;50.350;7.578;2024-02-16T02:40:11;99384.63;;;11.45;100.00
47883;BME280;37739;50.350;7.578;2024-02-16T02:42:39;99377.66;;;11.41;100.00
47883;BME280;37739;50.350;7.578;2024-02-16T02:45:05;99385.34;;;11.39;100.00
47883;BME280;37739;50.350;7.578;2024-02-16T02:47:33;99382.63;;;11.35;100.00
47883;BME280;37739;50.350;7.578;2024-02-16T02:49:58;99375.75;;;11.34;100.00
47883;BME280;37739;50.350;7.578;2024-02-16T02:52:26;99371.41;;;11.31;100.00
47883;BME280;37739;50.350;7.578;2024-02-16T02:54:53;99374.72;;;11.27;100.00
47883;BME280;37739;50.350;7.578;2024-02-16T02:57:21;99369.41;;;11.21;100.00
47883;BME280;37739;50.350;7.578;2024-02-16T02:59:47;99374.53;;;11.21;100.00
47883;BME280;37739;50.350;7.578;2024-02-16T03:02:17;99379.63;;;11.19;100.00
47883;BME280;37739;50.350;7.578;2024-02-16T03:04:44;99380.59;;;11.23;100.00
47883;BME280;37739;50.350;7.578;2024-02-16T03:07:14;99383.25;;;11.26;100.00
47883;BME280;37739;50.350;7.578;2024-02-16T03:09:40;99379.94;;;11.30;100.00
47883;BME280;37739;50.350;7.578;2024-02-16T03:12:11;99380.06;;;11.35;100.00
47883;BME280;37739;50.350;7.578;2024-02-16T03:14:37;99383.47;;;11.34;100.00
47883;BME280;37739;50.350;7.578;2024-02-16T03:17:02;99381.72;;;11.33;100.00
47883;BME280;37739;50.350;7.578;2024-02-16T03:19:29;99387.69;;;11.32;100.00
47883;BME280;37739;50.350;7.578;2024-02-16T03:21:54;99387.69;;;11.32;100.00
47883;BME280;37739;50.350;7.578;2024-02-16T03:24:22;99390.97;;;11.28;100.00
47883;BME280;37739;50.350;7.578;2024-02-16T03:26:48;99391.78;;;11.25;100.00
47883;BME280;37739;50.350;7.578;2024-02-16T03:29:14;99390.13;;;11.27;100.00
47883;BME280;37739;50.350;7.578;2024-02-16T03:31:41;99395.34;;;11.30;100.00
47883;BME280;37739;50.350;7.578;2024-02-16T03:34:11;99396.22;;;11.31;100.00
47883;BME280;37739;50.350;7.578;2024-02-16T03:36:37;99394.50;;;11.31;100.00
47883;BME280;37739;50.350;7.578;2024-02-16T03:39:02;99395.31;;;11.29;100.00
47883;BME280;37739;50.350;7.578;2024-02-16T03:41:28;99401.19;;;11.25;100.00
47883;BME280;37739;50.350;7.578;2024-02-16T03:43:53;99395.94;;;11.22;100.00
47883;BME280;37739;50.350;7.578;2024-02-16T03:46:22;99406.31;;;11.25;100.00
47883;BME280;37739;50.350;7.578;2024-02-16T03:48:49;99400.31;;;11.24;100.00
47883;BME280;37739;50.350;7.578;2024-02-16T03:51:17;99408.03;;;11.24;100.00
47883;BME280;37739;50.350;7.578;2024-02-16T03:53:46;99414.06;;;11.26;100.00
47883;BME280;37739;50.350;7.578;2024-02-16T03:56:18;99404.66;;;11.27;100.00
47883;BME280;37739;50.350;7.578;2024-02-16T03:58:43;99395.25;;;11.27;100.00
47883;BME280;37739;50.350;7.578;2024-02-16T04:01:09;99388.41;;;11.28;100.00
47883;BME280;37739;50.350;7.578;2024-02-16T04:03:34;99385.84;;;11.28;100.00
47883;BME280;37739;50.350;7.578;2024-02-16T04:06:00;99387.50;;;11.26;100.00
47883;BME280;37739;50.350;7.578;2024-02-16T04:08:26;99383.97;;;11.20;100.00
47883;BME280;37739;50.350;7.578;2024-02-16T04:10:52;99394.06;;;11.16;100.00
47883;BME280;37739;50.350;7.578;2024-02-16T04:13:19;99395.66;;;11.11;100.00
47883;BME280;37739;50.350;7.578;2024-02-16T04:15:45;99404.19;;;11.10;100.00
47883;BME280;37739;50.350;7.578;2024-02-16T04:18:10;99405.13;;;11.13;100.00
47883;BME280;37739;50.350;7.578;2024-02-16T04:20:36;99400.22;;;11.21;100.00
47883;BME280;37739;50.350;7.578;2024-02-16T04:23:01;99405.41;;;11.23;100.00
47883;BME280;37739;50.350;7.578;2024-02-16T04:25:26;99407.22;;;11.27;100.00
47883;BME280;37739;50.350;7.578;2024-02-16T04:27:54;99405.47;;;11.26;100.00
47883;BME280;37739;50.350;7.578;2024-02-16T04:30:20;99408.03;;;11.26;100.00
47883;BME280;37739;50.350;7.578;2024-02-16T04:32:45;99402.78;;;11.21;100.00
47883;BME280;37739;50.350;7.578;2024-02-16T04:35:10;99409.47;;;11.16;100.00
47883;BME280;37739;50.350;7.578;2024-02-16T04:37:39;99394.00;;;11.13;100.00
47883;BME280;37739;50.350;7.578;2024-02-16T04:40:06;99387.06;;;11.10;100.00
47883;BME280;37739;50.350;7.578;2024-02-16T04:42:31;99391.34;;;11.10;100.00
47883;BME280;37739;50.350;7.578;2024-02-16T04:44:56;99394.66;;;11.06;100.00
47883;BME280;37739;50.350;7.578;2024-02-16T04:47:24;99378.28;;;11.02;100.00
47883;BME280;37739;50.350;7.578;2024-02-16T04:49:52;99390.25;;;11.02;100.00
47883;BME280;37739;50.350;7.578;2024-02-16T04:52:20;99385.09;;;11.00;100.00
47883;BME280;37739;50.350;7.578;2024-02-16T04:54:45;99376.59;;;11.03;100.00
47883;BME280;37739;50.350;7.578;2024-02-16T04:57:10;99380.16;;;11.08;100.00
47883;BME280;37739;50.350;7.578;2024-02-16T04:59:36;99382.84;;;11.12;100.00
47883;BME280;37739;50.350;7.578;2024-02-16T05:02:03;99387.28;;;11.18;100.00
47883;BME280;37739;50.350;7.578;2024-02-16T05:04:29;99389.13;;;11.22;100.00
47883;BME280;37739;50.350;7.578;2024-02-16T05:06:54;99385.78;;;11.25;100.00
47883;BME280;37739;50.350;7.578;2024-02-16T05:09:22;99385.84;;;11.28;100.00
47883;BME280;37739;50.350;7.578;2024-02-16T05:11:50;99384.16;;;11.28;100.00
47883;BME280;37739;50.350;7.578;2024-02-16T05:14:16;99377.31;;;11.29;100.00
47883;BME280;37739;50.350;7.578;2024-02-16T05:16:44;99376.47;;;11.28;100.00
47883;BME280;37739;50.350;7.578;2024-02-16T05:19:13;99372.94;;;11.25;100.00
47883;BME280;37739;50.350;7.578;2024-02-16T05:21:38;99378.88;;;11.24;100.00
47883;BME280;37739;50.350;7.578;2024-02-16T05:24:04;99374.59;;;11.23;100.00
47883;BME280;37739;50.350;7.578;2024-02-16T05:26:29;99370.97;;;11.14;100.00
47883;BME280;37739;50.350;7.578;2024-02-16T05:28:57;99374.22;;;11.09;100.00
47883;BME280;37739;50.350;7.578;2024-02-16T05:31:22;99379.25;;;11.06;100.00
47883;BME280;37739;50.350;7.578;2024-02-16T05:33:51;99374.81;;;11.00;100.00
47883;BME280;37739;50.350;7.578;2024-02-16T05:36:20;99363.59;;;10.96;100.00
47883;BME280;37739;50.350;7.578;2024-02-16T05:38:50;99373.78;;;10.93;100.00
47883;BME280;37739;50.350;7.578;2024-02-16T05:41:17;99375.47;;;10.93;100.00
47883;BME280;37739;50.350;7.578;2024-02-16T05:43:43;99376.38;;;10.95;100.00
47883;BME280;37739;50.350;7.578;2024-02-16T05:46:13;99368.59;;;10.92;100.00
47883;BME280;37739;50.350;7.578;2024-02-16T05:48:40;99372.88;;;10.91;100.00
47883;BME280;37739;50.350;7.578;2024-02-16T05:51:08;99366.09;;;10.93;100.00
47883;BME280;37739;50.350;7.578;2024-02-16T05:53:38;99357.53;;;10.94;100.00
47883;BME280;37739;50.350;7.578;2024-02-16T05:56:05;99368.50;;;10.89;100.00
47883;BME280;37739;50.350;7.578;2024-02-16T05:58:30;99370.22;;;10.88;100.00
47883;BME280;37739;50.350;7.578;2024-02-16T06:00:56;99374.47;;;10.88;100.00
47883;BME280;37739;50.350;7.578;2024-02-16T06:03:22;99371.00;;;10.86;100.00
47883;BME280;37739;50.350;7.578;2024-02-16T06:05:50;99363.31;;;10.86;100.00
47883;BME280;37739;50.350;7.578;2024-02-16T06:08:16;99377.81;;;10.85;100.00
47883;BME280;37739;50.350;7.578;2024-02-16T06:10:45;99369.34;;;10.88;100.00
47883;BME280;37739;50.350;7.578;2024-02-16T06:13:18;99375.38;;;10.90;100.00
47883;BME280;37739;50.350;7.578;2024-02-16T06:15:44;99377.06;;;10.89;100.00
47883;BME280;37739;50.350;7.578;2024-02-16T06:18:10;99371.81;;;10.85;100.00
47883;BME280;37739;50.350;7.578;2024-02-16T06:20:37;99374.44;;;10.86;100.00
47883;BME280;37739;50.350;7.578;2024-02-16T06:23:04;99376.94;;;10.85;100.00
47883;BME280;37739;50.350;7.578;2024-02-16T06:25:30;99382.03;;;10.83;100.00
47883;BME280;37739;50.350;7.578;2024-02-16T06:27:55;99380.41;;;10.87;100.00
47883;BME280;37739;50.350;7.578;2024-02-16T06:30:23;99393.34;;;10.90;100.00
47883;BME280;37739;50.350;7.578;2024-02-16T06:32:48;99390.75;;;10.88;100.00
47883;BME280;37739;50.350;7.578;2024-02-16T06:35:13;99393.34;;;10.90;100.00
47883;BME280;37739;50.350;7.578;2024-02-16T06:37:39;99393.44;;;10.93;100.00
47883;BME280;37739;50.350;7.578;2024-02-16T06:40:06;99396.00;;;10.93;100.00
47883;BME280;37739;50.350;7.578;2024-02-16T06:42:31;99402.94;;;10.95;100.00
47883;BME280;37739;50.350;7.578;2024-02-16T06:44:59;99415.06;;;11.01;100.00
47883;BME280;37739;50.350;7.578;2024-02-16T06:47:24;99407.38;;;11.01;100.00
47883;BME280;37739;50.350;7.578;2024-02-16T06:49:51;99414.28;;;11.04;100.00
47883;BME280;37739;50.350;7.578;2024-02-16T06:52:19;99417.81;;;11.07;100.00
47883;BME280;37739;50.350;7.578;2024-02-16T06:54:47;99411.88;;;11.10;100.00
47883;BME280;37739;50.350;7.578;2024-02-16T06:57:19;99422.25;;;11.13;100.00
47883;BME280;37739;50.350;7.578;2024-02-16T06:59:45;99422.31;;;11.14;100.00
47883;BME280;37739;50.350;7.578;2024-02-16T07:02:11;99420.66;;;11.16;100.00
47883;BME280;37739;50.350;7.578;2024-02-16T07:04:39;99428.25;;;11.13;100.00
47883;BME280;37739;50.350;7.578;2024-02-16T07:07:07;99423.13;;;11.13;100.00
47883;BME280;37739;50.350;7.578;2024-02-16T07:09:35;99438.63;;;11.18;100.00
47883;BME280;37739;50.350;7.578;2024-02-16T07:12:01;99439.59;;;11.22;100.00
47883;BME280;37739;50.350;7.578;2024-02-16T07:14:27;99439.59;;;11.22;100.00
47883;BME280;37739;50.350;7.578;2024-02-16T07:16:55;99439.66;;;11.23;100.00
47883;BME280;37739;50.350;7.578;2024-02-16T07:19:21;99444.88;;;11.26;100.00
47883;BME280;37739;50.350;7.578;2024-02-16T07:21:46;99443.19;;;11.27;100.00
47883;BME280;37739;50.350;7.578;2024-02-16T07:24:14;99450.03;;;11.28;100.00
47883;BME280;37739;50.350;7.578;2024-02-16T07:26:43;99446.72;;;11.30;100.00
47883;BME280;37739;50.350;7.578;2024-02-16T07:29:11;99439.00;;;11.30;99.85
47883;BME280;37739;50.350;7.578;2024-02-16T07:31:41;99443.34;;;11.33;100.00
47883;BME280;37739;50.350;7.578;2024-02-16T07:34:06;99451.06;;;11.33;100.00
47883;BME280;37739;50.350;7.578;2024-02-16T07:36:34;99456.13;;;11.30;100.00
47883;BME280;37739;50.350;7.578;2024-02-16T07:38:59;99452.66;;;11.29;100.00
47883;BME280;37739;50.350;7.578;2024-02-16T07:41:25;99459.56;;;11.30;100.00
47883;BME280;37739;50.350;7.578;2024-02-16T07:43:50;99454.41;;;11.30;100.00
47883;BME280;37739;50.350;7.578;2024-02-16T07:46:16;99465.53;;;11.31;100.00
47883;BME280;37739;50.350;7.578;2024-02-16T07:48:41;99465.50;;;11.29;100.00
47883;BME280;37739;50.350;7.578;2024-02-16T07:51:07;99472.34;;;11.29;100.00
47883;BME280;37739;50.350;7.578;2024-02-16T07:53:33;99477.53;;;11.30;100.00
47883;BME280;37739;50.350;7.578;2024-02-16T07:55:58;99478.50;;;11.34;100.00
47883;BME280;37739;50.350;7.578;2024-02-16T07:58:24;99475.06;;;11.35;100.00
47883;BME280;37739;50.350;7.578;2024-02-16T08:00:49;99478.56;;;11.37;100.00
47883;BME280;37739;50.350;7.578;2024-02-16T08:03:16;99487.97;;;11.36;100.00
47883;BME280;37739;50.350;7.578;2024-02-16T08:05:41;99480.22;;;11.35;99.92
47883;BME280;37739;50.350;7.578;2024-02-16T08:08:11;99482.03;;;11.39;99.97
47883;BME280;37739;50.350;7.578;2024-02-16T08:10:36;99488.13;;;11.43;99.84
47883;BME280;37739;50.350;7.578;2024-02-16T08:13:04;99484.81;;;11.45;99.64
47883;BME280;37739;50.350;7.578;2024-02-16T08:15:29;99495.09;;;11.47;99.64
47883;BME280;37739;50.350;7.578;2024-02-16T08:17:57;99488.19;;;11.44;99.95
47883;BME280;37739;50.350;7.578;2024-02-16T08:20:23;99489.16;;;11.48;99.54
47883;BME280;37739;50.350;7.578;2024-02-16T08:22:48;99495.16;;;11.48;99.43
47883;BME280;37739;50.350;7.578;2024-02-16T08:25:16;99499.44;;;11.48;99.49
47883;BME280;37739;50.350;7.578;2024-02-16T08:27:44;99502.97;;;11.51;99.24
47883;BME280;37739;50.350;7.578;2024-02-16T08:30:11;99500.44;;;11.53;99.12
47883;BME280;37739;50.350;7.578;2024-02-16T08:32:37;99500.38;;;11.51;98.83
47883;BME280;37739;50.350;7.578;2024-02-16T08:35:02;99505.59;;;11.54;98.99
47883;BME280;37739;50.350;7.578;2024-02-16T08:37:30;99506.59;;;11.59;98.76
47883;BME280;37739;50.350;7.578;2024-02-16T08:39:55;99507.47;;;11.60;98.62
47883;BME280;37739;50.350;7.578;2024-02-16T08:42:21;99505.78;;;11.61;98.67
47883;BME280;37739;50.350;7.578;2024-02-16T08:44:50;99514.41;;;11.63;98.65
47883;BME280;37739;50.350;7.578;2024-02-16T08:47:15;99510.19;;;11.66;98.84
47883;BME280;37739;50.350;7.578;2024-02-16T08:49:41;99505.09;;;11.68;99.08
47883;BME280;37739;50.350;7.578;2024-02-16T08:52:09;99506.03;;;11.70;99.05
47883;BME280;37739;50.350;7.578;2024-02-16T08:54:35;99514.69;;;11.73;98.98
47883;BME280;37739;50.350;7.578;2024-02-16T08:57:00;99515.59;;;11.75;98.82
47883;BME280;37739;50.350;7.578;2024-02-16T08:59:25;99514.00;;;11.79;99.10
47883;BME280;37739;50.350;7.578;2024-02-16T09:01:51;99522.72;;;11.84;98.68
47883;BME280;37739;50.350;7.578;2024-02-16T09:04:21;99516.81;;;11.88;98.34
47883;BME280;37739;50.350;7.578;2024-02-16T09:06:50;99516.91;;;11.90;98.14
47883;BME280;37739;50.350;7.578;2024-02-16T09:09:18;99522.19;;;11.96;97.43
47883;BME280;37739;50.350;7.578;2024-02-16T09:11:44;99536.06;;;12.01;97.24
47883;BME280;37739;50.350;7.578;2024-02-16T09:14:09;99534.47;;;12.06;96.99
47883;BME280;37739;50.350;7.578;2024-02-16T09:16:34;99529.38;;;12.08;96.89
47883;BME280;37739;50.350;7.578;2024-02-16T09:19:02;99538.91;;;12.12;96.40
47883;BME280;37739;50.350;7.578;2024-02-16T09:21:32;99545.91;;;12.17;96.34
47883;BME280;37739;50.350;7.578;2024-02-16T09:23:57;99550.44;;;12.26;96.30
47883;BME280;37739;50.350;7.578;2024-02-16T09:26:26;99558.25;;;12.31;96.22
47883;BME280;37739;50.350;7.578;2024-02-16T09:28:57;99560.13;;;12.36;96.10
47883;BME280;37739;50.350;7.578;2024-02-16T09:31:23;99563.69;;;12.42;96.27
47883;BME280;37739;50.350;7.578;2024-02-16T09:33:48;99571.44;;;12.43;97.27
47883;BME280;37739;50.350;7.578;2024-02-16T09:36:19;99576.63;;;12.45;97.69
47883;BME280;37739;50.350;7.578;2024-02-16T09:38:50;99575.84;;;12.47;97.84
47883;BME280;37739;50.350;7.578;2024-02-16T09:41:15;99587.94;;;12.51;98.09
47883;BME280;37739;50.350;7.578;2024-02-16T09:43:41;99577.66;;;12.51;97.36
47883;BME280;37739;50.350;7.578;2024-02-16T09:46:08;99590.69;;;12.57;97.93
47883;BME280;37739;50.350;7.578;2024-02-16T09:48:33;99593.34;;;12.62;98.26
47883;BME280;37739;50.350;7.578;2024-02-16T09:50:59;99594.31;;;12.66;97.93
47883;BME280;37739;50.350;7.578;2024-02-16T09:53:28;99590.00;;;12.65;93.86
47883;BME280;37739;50.350;7.578;2024-02-16T09:55:56;99596.22;;;12.73;95.83
47883;BME280;37739;50.350;7.578;2024-02-16T09:58:22;99598.03;;;12.77;94.83
47883;BME280;37739;50.350;7.578;2024-02-16T10:00:51;99598.97;;;12.81;94.47
47883;BME280;37739;50.350;7.578;2024-02-16T10:03:23;99599.94;;;12.84;95.51
47883;BME280;37739;50.350;7.578;2024-02-16T10:05:50;99605.06;;;12.84;95.45
47883;BME280;37739;50.350;7.578;2024-02-16T10:08:17;99605.84;;;12.82;95.67
47883;BME280;37739;50.350;7.578;2024-02-16T10:10:42;99601.59;;;12.82;95.88
47883;BME280;37739;50.350;7.578;2024-02-16T10:13:10;99602.50;;;12.84;95.01
47883;BME280;37739;50.350;7.578;2024-02-16T10:15:39;99607.69;;;12.87;95.23
47883;BME280;37739;50.350;7.578;2024-02-16T10:18:05;99614.56;;;12.87;95.53
47883;BME280;37739;50.350;7.578;2024-02-16T10:20:35;99627.47;;;12.88;94.86
47883;BME280;37739;50.350;7.578;2024-02-16T10:25:29;99630.97;;;12.90;95.25
47883;BME280;37739;50.350;7.578;2024-02-16T10:27:54;99634.44;;;12.92;95.05
47883;BME280;37739;50.350;7.578;2024-02-16T10:30:23;99633.63;;;12.95;95.63
47883;BME280;37739;50.350;7.578;2024-02-16T10:32:50;99633.59;;;12.92;94.12
47883;BME280;37739;50.350;7.578;2024-02-16T10:35:20;99632.81;;;12.96;94.84
47883;BME280;37739;50.350;7.578;2024-02-16T10:37:47;99620.81;;;12.96;94.87
47883;BME280;37739;50.350;7.578;2024-02-16T10:40:15;99626.88;;;12.99;94.73
47883;BME280;37739;50.350;7.578;2024-02-16T10:42:45;99629.44;;;12.99;94.88
47883;BME280;37739;50.350;7.578;2024-02-16T10:45:17;99636.34;;;13.00;93.60
47883;BME280;37739;50.350;7.578;2024-02-16T10:47:45;99638.06;;;13.01;94.32
47883;BME280;37739;50.350;7.578;2024-02-16T10:50:10;99641.53;;;13.01;94.30
47883;BME280;37739;50.350;7.578;2024-02-16T10:52:37;99636.41;;;13.01;94.88
47883;BME280;37739;50.350;7.578;2024-02-16T10:55:07;99643.31;;;13.04;94.76
47883;BME280;37739;50.350;7.578;2024-02-16T10:57:36;99647.63;;;13.05;94.83
47883;BME280;37739;50.350;7.578;2024-02-16T11:00:07;99648.56;;;13.07;95.64
47883;BME280;37739;50.350;7.578;2024-02-16T11:02:51;99641.69;;;13.07;95.14
47883;BME280;37739;50.350;7.578;2024-02-16T11:05:18;99646.88;;;13.10;95.70
47883;BME280;37739;50.350;7.578;2024-02-16T11:07:44;99648.66;;;13.11;96.13
47883;BME280;37739;50.350;7.578;2024-02-16T11:10:12;99654.63;;;13.10;95.43
47883;BME280;37739;50.350;7.578;2024-02-16T11:12:43;99660.66;;;13.11;95.26
47883;BME280;37739;50.350;7.578;2024-02-16T11:15:11;99660.72;;;13.14;95.72
47883;BME280;37739;50.350;7.578;2024-02-16T11:17:40;99662.47;;;13.15;95.68
47883;BME280;37739;50.350;7.578;2024-02-16T11:20:06;99665.91;;;13.15;95.88
47883;BME280;37739;50.350;7.578;2024-02-16T11:22:37;99658.22;;;13.17;96.13
47883;BME280;37739;50.350;7.578;2024-02-16T11:25:04;99661.72;;;13.19;96.48
47883;BME280;37739;50.350;7.578;2024-02-16T11:27:31;99663.47;;;13.22;96.84
47883;BME280;37739;50.350;7.578;2024-02-16T11:29:59;99656.53;;;13.18;94.66
47883;BME280;37739;50.350;7.578;2024-02-16T11:32:32;99658.28;;;13.20;95.78
47883;BME280;37739;50.350;7.578;2024-02-16T11:35:04;99666.06;;;13.22;96.05
47883;BME280;37739;50.350;7.578;2024-02-16T11:37:33;99669.53;;;13.24;96.56
47883;BME280;37739;50.350;7.578;2024-02-16T11:39:58;99664.38;;;13.24;95.91
47883;BME280;37739;50.350;7.578;2024-02-16T11:42:24;99662.81;;;13.29;96.78
47883;BME280;37739;50.350;7.578;2024-02-16T11:44:53;99659.44;;;13.30;96.60
47883;BME280;37739;50.350;7.578;2024-02-16T11:47:21;99667.16;;;13.30;97.46
47883;BME280;37739;50.350;7.578;2024-02-16T11:50:06;99658.59;;;13.31;97.77
47883;BME280;37739;50.350;7.578;2024-02-16T11:52:36;99653.34;;;13.29;98.19
47883;BME280;37739;50.350;7.578;2024-02-16T11:55:04;99654.22;;;13.28;98.43
47883;BME280;37739;50.350;7.578;2024-02-16T11:57:33;99649.13;;;13.30;100.00
47883;BME280;37739;50.350;7.578;2024-02-16T12:00:03;99648.28;;;13.31;100.00
47883;BME280;37739;50.350;7.578;2024-02-16T12:02:36;99645.81;;;13.35;100.00
47883;BME280;37739;50.350;7.578;2024-02-16T12:05:02;99645.84;;;13.37;100.00
47883;BME280;37739;50.350;7.578;2024-02-16T12:07:31;99644.16;;;13.38;100.00
47883;BME280;37739;50.350;7.578;2024-02-16T12:10:00;99641.59;;;13.39;100.00
47883;BME280;37739;50.350;7.578;2024-02-16T12:12:28;99646.78;;;13.41;100.00
47883;BME280;37739;50.350;7.578;2024-02-16T12:14:54;99639.91;;;13.40;100.00
47883;BME280;37739;50.350;7.578;2024-02-16T12:17:24;99642.50;;;13.41;100.00
47883;BME280;37739;50.350;7.578;2024-02-16T12:19:51;99647.66;;;13.41;100.00
47883;BME280;37739;50.350;7.578;2024-02-16T12:22:22;99643.41;;;13.43;100.00
47883;BME280;37739;50.350;7.578;2024-02-16T12:24:50;99641.69;;;13.42;100.00
47883;BME280;37739;50.350;7.578;2024-02-16T12:27:16;99648.56;;;13.43;100.00
47883;BME280;37739;50.350;7.578;2024-02-16T12:29:42;99646.88;;;13.44;100.00
47883;BME280;37739;50.350;7.578;2024-02-16T12:32:09;99644.22;;;13.41;100.00
47883;BME280;37739;50.350;7.578;2024-02-16T12:34:37;99649.38;;;13.41;100.00
47883;BME280;37739;50.350;7.578;2024-02-16T12:37:06;99646.75;;;13.39;100.00
47883;BME280;37739;50.350;7.578;2024-02-16T12:39:36;99642.41;;;13.37;100.00
47883;BME280;37739;50.350;7.578;2024-02-16T12:42:02;99640.66;;;13.35;100.00
47883;BME280;37739;50.350;7.578;2024-02-16T12:44:30;99649.31;;;13.38;100.00
47883;BME280;37739;50.350;7.578;2024-02-16T12:46:56;99657.88;;;13.37;100.00
47883;BME280;37739;50.350;7.578;2024-02-16T12:49:21;99661.25;;;13.34;100.00
47883;BME280;37739;50.350;7.578;2024-02-16T12:51:53;99659.53;;;13.34;100.00
47883;BME280;37739;50.350;7.578;2024-02-16T12:54:21;99662.03;;;13.31;100.00
47883;BME280;37739;50.350;7.578;2024-02-16T12:56:47;99675.81;;;13.33;100.00